createdAt,value
2019-03-06T00:03:13.179Z,27.58
2019-03-06T00:08:18.222Z,24.82
2019-03-06T00:13:23.174Z,26.17
2019-03-06T00:18:28.190Z,25.85
2019-03-06T00:23:33.220Z,24.87
2019-03-06T00:28:38.209Z,26.60
2019-03-06T00:33:43.551Z,23.92
2019-03-06T00:38:48.738Z,25.50
2019-03-06T00:43:53.743Z,24.53
2019-03-06T00:48:58.768Z,26.83
2019-03-06T00:54:04.046Z,25.37
2019-03-06T00:59:09.363Z,27.95
2019-03-06T01:04:14.368Z,26.33
2019-03-06T01:09:19.418Z,30.12
2019-03-06T01:14:24.872Z,27.35
2019-03-06T01:19:29.884Z,29.03
2019-03-06T01:24:34.914Z,26.67
2019-03-06T01:29:39.985Z,27.10
2019-03-06T01:35:12.864Z,24.47
2019-03-06T01:40:30.389Z,23.57
2019-03-06T01:45:35.435Z,23.38
2019-03-06T01:50:40.516Z,27.27
2019-03-06T01:55:45.500Z,29.23
2019-03-06T02:00:52.167Z,29.43
2019-03-06T02:05:57.291Z,28.63
2019-03-06T02:11:02.388Z,30.23
2019-03-06T02:21:11.710Z,22.33
2019-03-06T02:26:16.687Z,24.73
2019-03-06T02:31:22.016Z,26.60
2019-03-06T02:36:26.975Z,26.80
2019-03-06T02:41:31.985Z,28.47
2019-03-06T02:46:36.977Z,27.50
2019-03-06T02:51:42.050Z,26.20
2019-03-06T02:56:46.982Z,28.73
2019-03-06T03:02:17.037Z,25.63
2019-03-06T03:07:22.063Z,25.53
2019-03-06T03:12:27.067Z,29.53
2019-03-06T03:17:32.012Z,32.07
2019-03-06T03:22:36.970Z,33.77
2019-03-06T03:27:41.952Z,29.40
2019-03-06T03:32:46.978Z,25.80
2019-03-06T03:37:52.252Z,29.13
2019-03-06T03:42:57.280Z,39.40
2019-03-06T03:48:02.251Z,36.07
2019-03-06T03:53:07.279Z,33.60
2019-03-06T03:58:12.258Z,34.90
2019-03-06T04:03:17.214Z,30.70
2019-03-06T04:08:22.603Z,29.57
2019-03-06T04:13:27.884Z,33.83
2019-03-06T04:18:32.827Z,35.33
2019-03-06T04:23:38.860Z,30.87
2019-03-06T04:28:43.845Z,29.57
2019-03-06T04:33:49.230Z,32.40
2019-03-06T04:38:54.279Z,34.50
2019-03-06T04:43:59.671Z,32.27
2019-03-06T04:49:04.722Z,27.73
2019-03-06T04:54:09.987Z,31.93
2019-03-06T04:59:14.890Z,34.43
2019-03-06T05:04:20.539Z,33.00
2019-03-06T05:09:25.594Z,36.90
2019-03-06T05:14:30.889Z,35.67
2019-03-06T05:19:36.335Z,39.53
2019-03-06T05:24:41.539Z,30.70
2019-03-06T05:29:46.599Z,36.67
2019-03-06T05:34:52.111Z,38.50
2019-03-06T05:39:57.095Z,40.23
2019-03-06T05:45:02.567Z,39.33
2019-03-06T05:50:07.624Z,42.73
2019-03-06T05:55:12.600Z,43.80
2019-03-06T06:00:20.130Z,42.60
2019-03-06T06:05:25.410Z,52.87
2019-03-06T06:10:32.954Z,47.90
2019-03-06T06:15:37.995Z,44.33
2019-03-06T06:20:43.089Z,43.07
2019-03-06T06:25:48.173Z,38.93
2019-03-06T06:30:53.164Z,43.10
2019-03-06T06:35:58.353Z,41.17
2019-03-06T06:41:03.403Z,37.93
2019-03-06T06:46:08.297Z,35.67
2019-03-06T06:51:53.123Z,42.53
2019-03-06T06:57:26.134Z,38.73
2019-03-06T07:03:35.601Z,38.10
2019-03-06T07:08:58.341Z,36.60
2019-03-06T07:14:16.263Z,36.93
2019-03-06T07:19:39.194Z,39.20
2019-03-06T07:25:09.487Z,42.67
2019-03-06T07:30:29.716Z,34.87
2019-03-06T07:36:16.748Z,33.63
2019-03-06T07:41:39.563Z,41.83
2019-03-06T07:47:02.713Z,31.17
2019-03-06T07:52:13.295Z,37.60
2019-03-06T07:57:26.485Z,29.80
2019-03-06T08:02:55.743Z,23.90
2019-03-06T08:08:00.737Z,24.93
2019-03-06T08:13:24.375Z,26.00
2019-03-06T08:19:00.635Z,29.63
2019-03-06T08:24:23.961Z,28.70
2019-03-06T08:29:30.537Z,32.30
2019-03-06T08:34:35.630Z,27.90
2019-03-06T08:39:40.629Z,27.80
2019-03-06T08:44:45.783Z,28.97
2019-03-06T08:50:02.997Z,26.80
2019-03-06T08:55:17.508Z,21.63
2019-03-06T09:00:57.010Z,22.83
2019-03-06T09:06:12.609Z,25.03
2019-03-06T09:11:35.189Z,21.37
2019-03-06T09:16:59.134Z,21.60
2019-03-06T09:22:12.922Z,20.70
2019-03-06T09:27:40.297Z,26.50
2019-03-06T09:33:06.019Z,27.35
2019-03-06T09:38:33.002Z,28.00
2019-03-06T09:54:21.677Z,23.85
2019-03-06T09:59:41.393Z,17.13
2019-03-06T10:05:05.372Z,18.90
2019-03-06T10:10:50.444Z,16.77
2019-03-06T10:15:55.877Z,15.00
2019-03-06T10:21:01.239Z,14.85
2019-03-06T10:26:06.341Z,17.77
2019-03-06T10:31:12.678Z,22.85
2019-03-06T10:36:18.096Z,19.50
2019-03-06T18:19:04.715Z,15.50
2019-03-06T18:24:10.293Z,14.67
2019-03-06T18:29:16.093Z,15.80
2019-03-06T18:34:21.623Z,18.80
2019-03-06T18:39:28.687Z,16.20
2019-03-06T18:44:34.561Z,16.87
2019-03-06T18:49:39.851Z,20.17
2019-03-06T18:54:44.904Z,16.32
2019-03-06T18:59:50.013Z,15.72
2019-03-06T19:04:55.347Z,16.80
2019-03-06T19:10:01.742Z,16.60
2019-03-06T19:15:08.721Z,19.87
2019-03-06T19:20:14.235Z,17.53
2019-03-06T19:25:19.538Z,18.30
2019-03-06T19:30:26.237Z,16.90
2019-03-06T19:35:33.232Z,16.40
2019-03-06T19:40:38.789Z,16.73
2019-03-06T19:45:43.983Z,17.50
2019-03-06T19:50:49.362Z,19.47
2019-03-06T19:55:54.673Z,20.17
2019-03-06T20:01:00.143Z,19.17
2019-03-06T20:06:05.735Z,21.50
2019-03-06T20:11:11.456Z,19.37
2019-03-06T20:16:16.597Z,19.80
2019-03-06T20:21:21.615Z,20.73
2019-03-06T20:26:27.487Z,17.70
2019-03-06T20:31:33.074Z,19.43
2019-03-06T20:36:38.349Z,20.10
2019-03-06T20:41:43.707Z,17.70
2019-03-06T20:46:49.007Z,18.97
2019-03-06T20:51:54.251Z,18.40
2019-03-06T20:56:59.435Z,22.00
2019-03-06T21:02:04.632Z,22.53
2019-03-06T21:07:10.001Z,23.37
2019-03-06T21:12:15.276Z,21.47
2019-03-06T21:17:20.497Z,22.60
2019-03-06T21:22:25.742Z,22.40
2019-03-06T21:27:30.989Z,23.40
2019-03-06T21:32:36.445Z,21.90
2019-03-06T21:37:41.814Z,23.47
2019-03-06T21:42:47.072Z,26.70
2019-03-06T21:47:52.344Z,20.20
2019-03-06T21:52:57.859Z,26.93
2019-03-06T21:58:03.708Z,18.90
2019-03-06T22:03:08.860Z,20.17
2019-03-06T22:08:13.928Z,18.07
2019-03-06T22:13:19.141Z,18.93
2019-03-06T22:18:24.153Z,20.17
2019-03-06T22:23:29.651Z,21.93
2019-03-06T22:28:34.739Z,22.60
2019-03-06T22:33:40.271Z,19.97
2019-03-06T22:38:45.896Z,18.70
2019-03-06T22:43:56.015Z,19.63
2019-03-06T22:49:01.045Z,20.17
2019-03-06T22:54:06.226Z,20.97
2019-03-06T22:59:11.290Z,25.37
2019-03-06T23:04:16.444Z,22.37
2019-03-06T23:09:21.463Z,19.23
2019-03-06T23:14:31.601Z,20.40
2019-03-06T23:19:36.654Z,21.93
2019-03-06T23:24:41.763Z,19.40
2019-03-06T23:29:46.934Z,22.30
2019-03-06T23:34:51.906Z,21.23
2019-03-06T23:39:57.267Z,15.90
2019-03-06T23:45:02.685Z,17.90
2019-03-06T23:50:07.891Z,18.80
2019-03-06T23:55:12.892Z,21.33
